sensor_id;sensor_type;location;lat;lon;timestamp;temperature;humidity
22984;DHT22;11658;48.908;9.140;2023-03-23T04:02:29;13.90;99.90
22984;DHT22;11658;48.908;9.140;2023-03-23T04:04:54;14.00;99.90
22984;DHT22;11658;48.908;9.140;2023-03-23T04:07:20;14.00;99.90
22984;DHT22;11658;48.908;9.140;2023-03-23T04:09:46;14.00;99.90
22984;DHT22;11658;48.908;9.140;2023-03-23T04:12:13;14.00;99.90
22984;DHT22;11658;48.908;9.140;2023-03-23T04:14:39;14.00;99.90
22984;DHT22;11658;48.908;9.140;2023-03-23T04:17:05;14.00;99.90
22984;DHT22;11658;48.908;9.140;2023-03-23T04:19:32;14.00;99.90
22984;DHT22;11658;48.908;9.140;2023-03-23T04:21:58;14.00;99.90
22984;DHT22;11658;48.908;9.140;2023-03-23T04:24:24;14.00;99.90
22984;DHT22;11658;48.908;9.140;2023-03-23T04:26:50;14.00;99.90
22984;DHT22;11658;48.908;9.140;2023-03-23T04:29:19;14.00;99.90
22984;DHT22;11658;48.908;9.140;2023-03-23T04:31:45;14.00;99.90
22984;DHT22;11658;48.908;9.140;2023-03-23T04:34:11;14.00;99.90
22984;DHT22;11658;48.908;9.140;2023-03-23T04:36:39;13.90;99.90
22984;DHT22;11658;48.908;9.140;2023-03-23T04:39:05;13.90;99.90
22984;DHT22;11658;48.908;9.140;2023-03-23T04:41:35;13.90;99.90
22984;DHT22;11658;48.908;9.140;2023-03-23T04:44:01;13.90;99.90
22984;DHT22;11658;48.908;9.140;2023-03-23T04:46:30;13.90;99.90
22984;DHT22;11658;48.908;9.140;2023-03-23T04:48:56;13.90;99.90
22984;DHT22;11658;48.908;9.140;2023-03-23T04:51:24;13.90;99.90
22984;DHT22;11658;48.908;9.140;2023-03-23T04:53:51;14.00;99.90
22984;DHT22;11658;48.908;9.140;2023-03-23T04:56:17;14.00;99.90
22984;DHT22;11658;48.908;9.140;2023-03-23T04:58:44;13.90;99.90
22984;DHT22;11658;48.908;9.140;2023-03-23T05:01:10;13.90;99.90
22984;DHT22;11658;48.908;9.140;2023-03-23T05:03:39;14.00;99.90
22984;DHT22;11658;48.908;9.140;2023-03-23T05:06:05;13.90;99.90
22984;DHT22;11658;48.908;9.140;2023-03-23T05:08:31;13.90;99.90
22984;DHT22;11658;48.908;9.140;2023-03-23T05:10:58;13.90;99.90
22984;DHT22;11658;48.908;9.140;2023-03-23T05:13:24;13.90;99.90
22984;DHT22;11658;48.908;9.140;2023-03-23T05:15:50;14.00;99.90
22984;DHT22;11658;48.908;9.140;2023-03-23T05:18:16;14.10;99.90
22984;DHT22;11658;48.908;9.140;2023-03-23T05:20:42;14.10;99.90
22984;DHT22;11658;48.908;9.140;2023-03-23T05:23:09;14.10;99.90
22984;DHT22;11658;48.908;9.140;2023-03-23T05:25:36;14.10;99.90
22984;DHT22;11658;48.908;9.140;2023-03-23T05:28:06;14.20;99.90
22984;DHT22;11658;48.908;9.140;2023-03-23T05:30:32;14.20;99.90
22984;DHT22;11658;48.908;9.140;2023-03-23T05:32:58;14.20;99.90
22984;DHT22;11658;48.908;9.140;2023-03-23T05:35:25;14.20;99.90
22984;DHT22;11658;48.908;9.140;2023-03-23T05:37:50;14.20;99.90
22984;DHT22;11658;48.908;9.140;2023-03-23T05:40:19;14.20;99.90
22984;DHT22;11658;48.908;9.140;2023-03-23T05:42:47;14.20;99.90
22984;DHT22;11658;48.908;9.140;2023-03-23T05:45:13;14.20;99.90
22984;DHT22;11658;48.908;9.140;2023-03-23T05:47:39;14.20;99.90
22984;DHT22;11658;48.908;9.140;2023-03-23T05:50:07;14.30;99.90
22984;DHT22;11658;48.908;9.140;2023-03-23T05:52:34;14.20;99.90
22984;DHT22;11658;48.908;9.140;2023-03-23T05:55:01;14.20;99.90
22984;DHT22;11658;48.908;9.140;2023-03-23T05:57:26;14.30;99.90
22984;DHT22;11658;48.908;9.140;2023-03-23T05:59:53;14.30;99.90
22984;DHT22;11658;48.908;9.140;2023-03-23T06:02:18;14.20;99.90
22984;DHT22;11658;48.908;9.140;2023-03-23T06:04:44;14.20;99.90
22984;DHT22;11658;48.908;9.140;2023-03-23T06:07:10;14.30;99.90
22984;DHT22;11658;48.908;9.140;2023-03-23T06:09:39;14.20;99.90
22984;DHT22;11658;48.908;9.140;2023-03-23T06:12:06;14.20;99.90
22984;DHT22;11658;48.908;9.140;2023-03-23T06:14:32;14.30;99.90
22984;DHT22;11658;48.908;9.140;2023-03-23T06:16:57;14.20;99.90
22984;DHT22;11658;48.908;9.140;2023-03-23T06:19:23;14.20;99.90
22984;DHT22;11658;48.908;9.140;2023-03-23T06:21:48;14.20;99.90
22984;DHT22;11658;48.908;9.140;2023-03-23T06:24:14;14.20;99.90
22984;DHT22;11658;48.908;9.140;2023-03-23T06:26:40;14.20;99.90
22984;DHT22;11658;48.908;9.140;2023-03-23T06:29:09;14.10;99.90
22984;DHT22;11658;48.908;9.140;2023-03-23T06:31:41;14.20;99.90
22984;DHT22;11658;48.908;9.140;2023-03-23T06:34:07;14.20;99.90
22984;DHT22;11658;48.908;9.140;2023-03-23T06:36:34;14.20;99.90
22984;DHT22;11658;48.908;9.140;2023-03-23T06:39:00;14.20;99.90
22984;DHT22;11658;48.908;9.140;2023-03-23T06:41:26;14.20;99.90
22984;DHT22;11658;48.908;9.140;2023-03-23T06:43:51;14.10;99.90
22984;DHT22;11658;48.908;9.140;2023-03-23T06:46:17;14.10;99.90
22984;DHT22;11658;48.908;9.140;2023-03-23T06:48:43;14.10;99.90
22984;DHT22;11658;48.908;9.140;2023-03-23T06:51:09;14.10;99.90
22984;DHT22;11658;48.908;9.140;2023-03-23T06:53:34;14.10;99.90
22984;DHT22;11658;48.908;9.140;2023-03-23T06:56:00;14.20;99.90
22984;DHT22;11658;48.908;9.140;2023-03-23T06:58:26;14.30;99.90
22984;DHT22;11658;48.908;9.140;2023-03-23T07:00:55;14.40;99.90
22984;DHT22;11658;48.908;9.140;2023-03-23T07:03:22;14.50;99.90
22984;DHT22;11658;48.908;9.140;2023-03-23T07:05:48;14.50;99.90
22984;DHT22;11658;48.908;9.140;2023-03-23T07:08:14;14.50;99.90
22984;DHT22;11658;48.908;9.140;2023-03-23T07:10:39;14.50;99.90
22984;DHT22;11658;48.908;9.140;2023-03-23T07:13:05;14.50;99.90
22984;DHT22;11658;48.908;9.140;2023-03-23T07:15:31;14.60;99.90
22984;DHT22;11658;48.908;9.140;2023-03-23T07:17:57;14.60;99.90
22984;DHT22;11658;48.908;9.140;2023-03-23T07:20:22;14.50;99.90
22984;DHT22;11658;48.908;9.140;2023-03-23T07:22:48;14.50;99.90
22984;DHT22;11658;48.908;9.140;2023-03-23T07:25:15;14.50;99.90
22984;DHT22;11658;48.908;9.140;2023-03-23T07:27:41;14.40;99.90
22984;DHT22;11658;48.908;9.140;2023-03-23T07:30:07;14.40;99.90
22984;DHT22;11658;48.908;9.140;2023-03-23T07:32:33;14.40;99.90
22984;DHT22;11658;48.908;9.140;2023-03-23T07:34:58;14.30;99.90
22984;DHT22;11658;48.908;9.140;2023-03-23T07:37:24;14.40;99.90
22984;DHT22;11658;48.908;9.140;2023-03-23T07:39:50;14.40;99.90
22984;DHT22;11658;48.908;9.140;2023-03-23T07:42:16;14.50;99.90
22984;DHT22;11658;48.908;9.140;2023-03-23T07:44:42;14.60;99.90
22984;DHT22;11658;48.908;9.140;2023-03-23T07:47:07;14.70;99.90
22984;DHT22;11658;48.908;9.140;2023-03-23T07:49:33;14.70;99.90
22984;DHT22;11658;48.908;9.140;2023-03-23T07:51:59;15.00;99.90
22984;DHT22;11658;48.908;9.140;2023-03-23T07:54:26;15.10;99.90
22984;DHT22;11658;48.908;9.140;2023-03-23T07:56:52;15.20;99.90
22984;DHT22;11658;48.908;9.140;2023-03-23T07:59:17;15.30;99.90
22984;DHT22;11658;48.908;9.140;2023-03-23T08:01:43;15.40;99.90
22984;DHT22;11658;48.908;9.140;2023-03-23T08:04:08;15.40;99.90
22984;DHT22;11658;48.908;9.140;2023-03-23T08:06:34;15.40;99.90
22984;DHT22;11658;48.908;9.140;2023-03-23T08:09:01;15.40;99.90
22984;DHT22;11658;48.908;9.140;2023-03-23T08:11:31;15.40;99.90
22984;DHT22;11658;48.908;9.140;2023-03-23T08:13:57;15.50;99.90
22984;DHT22;11658;48.908;9.140;2023-03-23T08:16:23;15.50;99.90
22984;DHT22;11658;48.908;9.140;2023-03-23T08:18:49;15.50;99.90
22984;DHT22;11658;48.908;9.140;2023-03-23T08:21:15;15.40;99.90
22984;DHT22;11658;48.908;9.140;2023-03-23T08:23:40;15.40;99.90
22984;DHT22;11658;48.908;9.140;2023-03-23T08:26:08;15.50;99.90
22984;DHT22;11658;48.908;9.140;2023-03-23T08:28:34;15.40;99.90
22984;DHT22;11658;48.908;9.140;2023-03-23T08:31:05;15.30;99.90
22984;DHT22;11658;48.908;9.140;2023-03-23T08:33:32;15.20;99.90
22984;DHT22;11658;48.908;9.140;2023-03-23T08:35:59;15.00;99.90
22984;DHT22;11658;48.908;9.140;2023-03-23T08:38:26;15.10;99.90
22984;DHT22;11658;48.908;9.140;2023-03-23T08:40:57;15.10;99.90
22984;DHT22;11658;48.908;9.140;2023-03-23T08:43:24;14.90;99.90
22984;DHT22;11658;48.908;9.140;2023-03-23T08:45:50;14.80;99.90
22984;DHT22;11658;48.908;9.140;2023-03-23T08:48:16;14.70;99.90
22984;DHT22;11658;48.908;9.140;2023-03-23T08:50:43;14.60;99.90
22984;DHT22;11658;48.908;9.140;2023-03-23T08:53:08;14.70;99.90
22984;DHT22;11658;48.908;9.140;2023-03-23T08:55:34;14.60;99.90
22984;DHT22;11658;48.908;9.140;2023-03-23T08:57:59;14.60;99.90
22984;DHT22;11658;48.908;9.140;2023-03-23T09:00:26;14.60;99.90
22984;DHT22;11658;48.908;9.140;2023-03-23T09:02:53;14.60;99.90
22984;DHT22;11658;48.908;9.140;2023-03-23T09:05:22;14.70;99.90
22984;DHT22;11658;48.908;9.140;2023-03-23T09:07:51;14.80;99.90
22984;DHT22;11658;48.908;9.140;2023-03-23T09:10:17;14.90;99.90
22984;DHT22;11658;48.908;9.140;2023-03-23T09:12:44;15.00;99.90
22984;DHT22;11658;48.908;9.140;2023-03-23T09:15:12;15.00;99.90
22984;DHT22;11658;48.908;9.140;2023-03-23T09:17:42;15.00;99.90
22984;DHT22;11658;48.908;9.140;2023-03-23T09:20:09;15.10;99.90
22984;DHT22;11658;48.908;9.140;2023-03-23T09:22:43;15.10;99.90
22984;DHT22;11658;48.908;9.140;2023-03-23T09:25:15;15.20;99.90
22984;DHT22;11658;48.908;9.140;2023-03-23T09:27:42;15.20;99.90
22984;DHT22;11658;48.908;9.140;2023-03-23T09:30:12;15.20;99.90
22984;DHT22;11658;48.908;9.140;2023-03-23T09:32:39;15.20;99.90
22984;DHT22;11658;48.908;9.140;2023-03-23T09:35:07;15.30;99.90
22984;DHT22;11658;48.908;9.140;2023-03-23T09:37:39;15.30;99.90
22984;DHT22;11658;48.908;9.140;2023-03-23T09:40:09;15.20;99.90
22984;DHT22;11658;48.908;9.140;2023-03-23T09:42:51;15.30;99.90
22984;DHT22;11658;48.908;9.140;2023-03-23T09:45:29;15.20;99.90
22984;DHT22;11658;48.908;9.140;2023-03-23T09:48:29;15.10;99.90
22984;DHT22;11658;48.908;9.140;2023-03-23T09:51:06;15.10;99.90
22984;DHT22;11658;48.908;9.140;2023-03-23T09:53:38;15.20;99.90
22984;DHT22;11658;48.908;9.140;2023-03-23T09:56:11;15.20;99.90
22984;DHT22;11658;48.908;9.140;2023-03-23T09:58:58;15.20;99.90
22984;DHT22;11658;48.908;9.140;2023-03-23T10:01:33;15.20;99.90
22984;DHT22;11658;48.908;9.140;2023-03-23T10:04:06;15.10;99.90
22984;DHT22;11658;48.908;9.140;2023-03-23T10:06:32;15.10;99.90
22984;DHT22;11658;48.908;9.140;2023-03-23T10:09:00;15.20;99.90
22984;DHT22;11658;48.908;9.140;2023-03-23T10:19:47;15.40;99.90
22984;DHT22;11658;48.908;9.140;2023-03-23T10:22:20;15.20;99.90
22984;DHT22;11658;48.908;9.140;2023-03-23T10:24:51;15.20;99.90
22984;DHT22;11658;48.908;9.140;2023-03-23T10:30:29;15.30;99.90
22984;DHT22;11658;48.908;9.140;2023-03-23T10:35:36;15.50;99.90
22984;DHT22;11658;48.908;9.140;2023-03-23T10:38:09;15.50;99.90
22984;DHT22;11658;48.908;9.140;2023-03-23T10:40:45;15.50;99.90
22984;DHT22;11658;48.908;9.140;2023-03-23T10:43:13;15.40;99.90
22984;DHT22;11658;48.908;9.140;2023-03-23T10:45:40;15.70;99.90
22984;DHT22;11658;48.908;9.140;2023-03-23T10:48:12;15.80;99.90
22984;DHT22;11658;48.908;9.140;2023-03-23T10:50:39;15.70;99.90
22984;DHT22;11658;48.908;9.140;2023-03-23T10:53:18;15.70;99.90
22984;DHT22;11658;48.908;9.140;2023-03-23T10:55:45;15.70;99.90
22984;DHT22;11658;48.908;9.140;2023-03-23T10:58:21;15.80;99.90
22984;DHT22;11658;48.908;9.140;2023-03-23T11:00:47;15.80;99.90
22984;DHT22;11658;48.908;9.140;2023-03-23T11:05:59;15.80;99.90
22984;DHT22;11658;48.908;9.140;2023-03-23T11:08:29;15.50;99.90
22984;DHT22;11658;48.908;9.140;2023-03-23T11:10:57;15.80;99.90
22984;DHT22;11658;48.908;9.140;2023-03-23T11:13:31;15.90;99.90
22984;DHT22;11658;48.908;9.140;2023-03-23T11:15:57;15.90;99.90
22984;DHT22;11658;48.908;9.140;2023-03-23T11:18:39;15.70;99.90
22984;DHT22;11658;48.908;9.140;2023-03-23T11:21:05;15.80;99.90
22984;DHT22;11658;48.908;9.140;2023-03-23T11:23:38;15.80;99.90
22984;DHT22;11658;48.908;9.140;2023-03-23T11:26:27;15.80;99.90
22984;DHT22;11658;48.908;9.140;2023-03-23T11:28:58;15.90;99.90
22984;DHT22;11658;48.908;9.140;2023-03-23T11:31:34;16.00;99.90
22984;DHT22;11658;48.908;9.140;2023-03-23T11:36:42;16.20;99.90
22984;DHT22;11658;48.908;9.140;2023-03-23T11:39:47;16.40;99.90
22984;DHT22;11658;48.908;9.140;2023-03-23T11:42:26;16.70;99.90
22984;DHT22;11658;48.908;9.140;2023-03-23T11:50:44;17.10;99.90
22984;DHT22;11658;48.908;9.140;2023-03-23T11:53:16;17.00;99.90
22984;DHT22;11658;48.908;9.140;2023-03-23T11:58:17;16.90;99.90
22984;DHT22;11658;48.908;9.140;2023-03-23T12:00:54;16.80;99.90
22984;DHT22;11658;48.908;9.140;2023-03-23T12:27:51;16.40;99.90
22984;DHT22;11658;48.908;9.140;2023-03-23T12:33:48;16.70;99.90
22984;DHT22;11658;48.908;9.140;2023-03-23T12:36:28;16.80;99.90
22984;DHT22;11658;48.908;9.140;2023-03-23T12:42:54;17.30;99.90
22984;DHT22;11658;48.908;9.140;2023-03-23T12:48:27;18.10;99.90
22984;DHT22;11658;48.908;9.140;2023-03-23T12:51:18;18.70;99.90
22984;DHT22;11658;48.908;9.140;2023-03-23T12:59:51;18.10;99.90
22984;DHT22;11658;48.908;9.140;2023-03-23T13:07:33;17.60;99.90
22984;DHT22;11658;48.908;9.140;2023-03-23T13:10:22;17.70;99.90
22984;DHT22;11658;48.908;9.140;2023-03-23T13:12:51;18.00;99.90
22984;DHT22;11658;48.908;9.140;2023-03-23T13:18:44;18.20;99.90
22984;DHT22;11658;48.908;9.140;2023-03-23T13:21:23;18.50;99.90
22984;DHT22;11658;48.908;9.140;2023-03-23T13:23:56;18.80;99.90
22984;DHT22;11658;48.908;9.140;2023-03-23T13:26:24;18.50;99.90
22984;DHT22;11658;48.908;9.140;2023-03-23T13:31:45;18.60;99.90
22984;DHT22;11658;48.908;9.140;2023-03-23T13:34:22;18.60;99.90
22984;DHT22;11658;48.908;9.140;2023-03-23T13:37:24;18.80;99.90
22984;DHT22;11658;48.908;9.140;2023-03-23T13:42:48;18.60;99.90
22984;DHT22;11658;48.908;9.140;2023-03-23T13:47:43;18.20;99.90
22984;DHT22;11658;48.908;9.140;2023-03-23T13:50:25;18.20;99.90
22984;DHT22;11658;48.908;9.140;2023-03-23T13:52:54;18.10;99.90
22984;DHT22;11658;48.908;9.140;2023-03-23T14:03:16;17.90;99.90
22984;DHT22;11658;48.908;9.140;2023-03-23T14:10:59;18.20;99.90
22984;DHT22;11658;48.908;9.140;2023-03-23T14:13:43;18.50;99.90
22984;DHT22;11658;48.908;9.140;2023-03-23T14:16:26;18.40;99.90
22984;DHT22;11658;48.908;9.140;2023-03-23T14:18:59;18.40;99.90
22984;DHT22;11658;48.908;9.140;2023-03-23T14:21:37;18.50;99.90
22984;DHT22;11658;48.908;9.140;2023-03-23T14:24:15;18.60;99.90
22984;DHT22;11658;48.908;9.140;2023-03-23T14:26:41;18.30;99.90
22984;DHT22;11658;48.908;9.140;2023-03-23T14:29:10;18.00;99.90
22984;DHT22;11658;48.908;9.140;2023-03-23T14:31:38;17.80;99.90
22984;DHT22;11658;48.908;9.140;2023-03-23T14:34:13;17.80;99.90
22984;DHT22;11658;48.908;9.140;2023-03-23T14:36:40;17.70;99.90
22984;DHT22;11658;48.908;9.140;2023-03-23T14:39:45;17.80;99.90
22984;DHT22;11658;48.908;9.140;2023-03-23T14:42:13;17.70;99.90
22984;DHT22;11658;48.908;9.140;2023-03-23T14:44:46;17.40;99.90
22984;DHT22;11658;48.908;9.140;2023-03-23T14:47:23;17.50;99.90
22984;DHT22;11658;48.908;9.140;2023-03-23T14:49:55;17.50;99.90
22984;DHT22;11658;48.908;9.140;2023-03-23T14:52:23;17.40;99.90
22984;DHT22;11658;48.908;9.140;2023-03-23T14:54:50;17.40;99.90
22984;DHT22;11658;48.908;9.140;2023-03-23T14:57:18;17.50;99.90
22984;DHT22;11658;48.908;9.140;2023-03-23T14:59:46;17.40;99.90
22984;DHT22;11658;48.908;9.140;2023-03-23T15:02:16;17.40;99.90
22984;DHT22;11658;48.908;9.140;2023-03-23T15:04:45;17.50;99.90
22984;DHT22;11658;48.908;9.140;2023-03-23T15:07:12;17.60;99.90
22984;DHT22;11658;48.908;9.140;2023-03-23T15:09:42;17.60;99.90
22984;DHT22;11658;48.908;9.140;2023-03-23T15:12:25;17.50;99.90
22984;DHT22;11658;48.908;9.140;2023-03-23T15:14:54;17.50;99.90
22984;DHT22;11658;48.908;9.140;2023-03-23T15:17:27;17.50;99.90
22984;DHT22;11658;48.908;9.140;2023-03-23T15:19:54;17.50;99.90
22984;DHT22;11658;48.908;9.140;2023-03-23T15:24:45;17.50;99.90
22984;DHT22;11658;48.908;9.140;2023-03-23T15:27:40;17.40;99.90
22984;DHT22;11658;48.908;9.140;2023-03-23T15:32:49;17.30;99.90
22984;DHT22;11658;48.908;9.140;2023-03-23T15:35:18;17.30;99.90
22984;DHT22;11658;48.908;9.140;2023-03-23T15:37:47;17.40;99.90
22984;DHT22;11658;48.908;9.140;2023-03-23T15:40:22;17.40;99.90
22984;DHT22;11658;48.908;9.140;2023-03-23T15:42:48;17.50;99.90
22984;DHT22;11658;48.908;9.140;2023-03-23T15:45:26;17.60;99.90
22984;DHT22;11658;48.908;9.140;2023-03-23T15:47:53;17.50;99.90
22984;DHT22;11658;48.908;9.140;2023-03-23T15:52:51;17.30;99.90
22984;DHT22;11658;48.908;9.140;2023-03-23T15:55:28;17.20;99.90
22984;DHT22;11658;48.908;9.140;2023-03-23T15:57:56;16.80;99.90
22984;DHT22;11658;48.908;9.140;2023-03-23T16:00:24;16.40;99.90
22984;DHT22;11658;48.908;9.140;2023-03-23T16:03:01;16.20;99.90
22984;DHT22;11658;48.908;9.140;2023-03-23T16:05:28;16.10;99.90
22984;DHT22;11658;48.908;9.140;2023-03-23T16:07:54;15.90;99.90
22984;DHT22;11658;48.908;9.140;2023-03-23T16:10:22;15.70;99.90
22984;DHT22;11658;48.908;9.140;2023-03-23T16:12:48;15.70;99.90
22984;DHT22;11658;48.908;9.140;2023-03-23T16:15:14;15.60;99.90
22984;DHT22;11658;48.908;9.140;2023-03-23T16:17:40;15.60;99.90
22984;DHT22;11658;48.908;9.140;2023-03-23T16:20:14;15.70;99.90
22984;DHT22;11658;48.908;9.140;2023-03-23T16:22:40;15.70;99.90
22984;DHT22;11658;48.908;9.140;2023-03-23T16:25:06;15.70;99.90
22984;DHT22;11658;48.908;9.140;2023-03-23T16:27:32;15.70;99.90
22984;DHT22;11658;48.908;9.140;2023-03-23T16:29:58;15.60;99.90
22984;DHT22;11658;48.908;9.140;2023-03-23T16:32:25;15.60;99.90
22984;DHT22;11658;48.908;9.140;2023-03-23T16:34:51;15.50;99.90
22984;DHT22;11658;48.908;9.140;2023-03-23T16:37:17;15.50;99.90
22984;DHT22;11658;48.908;9.140;2023-03-23T16:39:42;15.50;99.90
22984;DHT22;11658;48.908;9.140;2023-03-23T16:42:08;15.50;99.90
22984;DHT22;11658;48.908;9.140;2023-03-23T16:44:34;15.60;99.90
22984;DHT22;11658;48.908;9.140;2023-03-23T16:46:59;15.60;99.90
22984;DHT22;11658;48.908;9.140;2023-03-23T16:49:25;15.60;99.90
22984;DHT22;11658;48.908;9.140;2023-03-23T16:51:51;15.60;99.90
22984;DHT22;11658;48.908;9.140;2023-03-23T16:54:16;15.40;99.90
22984;DHT22;11658;48.908;9.140;2023-03-23T16:56:42;15.50;99.90
22984;DHT22;11658;48.908;9.140;2023-03-23T16:59:13;15.60;99.90
22984;DHT22;11658;48.908;9.140;2023-03-23T17:01:39;15.70;99.90
22984;DHT22;11658;48.908;9.140;2023-03-23T17:04:06;15.60;99.90
22984;DHT22;11658;48.908;9.140;2023-03-23T17:06:32;15.70;99.90
22984;DHT22;11658;48.908;9.140;2023-03-23T17:08:57;15.80;99.90
22984;DHT22;11658;48.908;9.140;2023-03-23T17:11:23;15.70;99.90
22984;DHT22;11658;48.908;9.140;2023-03-23T17:13:48;15.60;99.90
22984;DHT22;11658;48.908;9.140;2023-03-23T17:16:14;15.50;99.90
22984;DHT22;11658;48.908;9.140;2023-03-23T17:18:40;15.30;99.90
22984;DHT22;11658;48.908;9.140;2023-03-23T17:21:05;15.20;99.90
22984;DHT22;11658;48.908;9.140;2023-03-23T17:23:32;15.20;99.90
22984;DHT22;11658;48.908;9.140;2023-03-23T17:25:57;15.00;99.90
22984;DHT22;11658;48.908;9.140;2023-03-23T17:28:23;14.90;99.90
22984;DHT22;11658;48.908;9.140;2023-03-23T17:30:51;15.00;99.90
22984;DHT22;11658;48.908;9.140;2023-03-23T17:33:17;14.90;99.90
22984;DHT22;11658;48.908;9.140;2023-03-23T17:35:45;14.70;99.90
22984;DHT22;11658;48.908;9.140;2023-03-23T17:38:11;14.60;99.90
22984;DHT22;11658;48.908;9.140;2023-03-23T17:40:37;14.60;99.90
22984;DHT22;11658;48.908;9.140;2023-03-23T17:43:03;14.50;99.90
22984;DHT22;11658;48.908;9.140;2023-03-23T17:45:28;14.50;99.90
22984;DHT22;11658;48.908;9.140;2023-03-23T17:47:54;14.60;99.90
22984;DHT22;11658;48.908;9.140;2023-03-23T17:50:20;14.60;99.90
22984;DHT22;11658;48.908;9.140;2023-03-23T17:52:45;14.60;99.90
22984;DHT22;11658;48.908;9.140;2023-03-23T17:55:11;14.70;99.90
22984;DHT22;11658;48.908;9.140;2023-03-23T17:57:37;14.70;99.90
22984;DHT22;11658;48.908;9.140;2023-03-23T18:00:04;14.70;99.90
22984;DHT22;11658;48.908;9.140;2023-03-23T18:02:33;14.70;99.90
22984;DHT22;11658;48.908;9.140;2023-03-23T18:04:58;14.70;99.90
22984;DHT22;11658;48.908;9.140;2023-03-23T18:07:24;14.90;99.90
22984;DHT22;11658;48.908;9.140;2023-03-23T18:09:50;15.10;99.90
22984;DHT22;11658;48.908;9.140;2023-03-23T18:12:17;15.10;99.90
22984;DHT22;11658;48.908;9.140;2023-03-23T18:14:42;15.30;99.90
22984;DHT22;11658;48.908;9.140;2023-03-23T18:17:08;15.30;99.90
22984;DHT22;11658;48.908;9.140;2023-03-23T18:19:34;15.40;99.90
22984;DHT22;11658;48.908;9.140;2023-03-23T18:22:01;15.40;99.90
22984;DHT22;11658;48.908;9.140;2023-03-23T18:24:26;15.40;99.90
22984;DHT22;11658;48.908;9.140;2023-03-23T18:26:52;15.40;99.90
22984;DHT22;11658;48.908;9.140;2023-03-23T18:29:18;15.50;99.90
22984;DHT22;11658;48.908;9.140;2023-03-23T18:31:44;15.80;99.90
22984;DHT22;11658;48.908;9.140;2023-03-23T18:34:09;16.10;99.90
22984;DHT22;11658;48.908;9.140;2023-03-23T18:36:35;16.10;99.90
22984;DHT22;11658;48.908;9.140;2023-03-23T18:39:01;16.20;99.90
22984;DHT22;11658;48.908;9.140;2023-03-23T18:41:26;16.30;99.90
22984;DHT22;11658;48.908;9.140;2023-03-23T18:43:52;16.20;99.90
22984;DHT22;11658;48.908;9.140;2023-03-23T18:46:18;16.10;99.90
22984;DHT22;11658;48.908;9.140;2023-03-23T18:48:43;16.00;99.90
22984;DHT22;11658;48.908;9.140;2023-03-23T18:51:09;15.90;99.90
22984;DHT22;11658;48.908;9.140;2023-03-23T18:53:35;15.70;99.90
22984;DHT22;11658;48.908;9.140;2023-03-23T18:56:07;15.60;99.90
22984;DHT22;11658;48.908;9.140;2023-03-23T18:58:33;15.60;99.90
22984;DHT22;11658;48.908;9.140;2023-03-23T19:01:03;15.50;99.90
22984;DHT22;11658;48.908;9.140;2023-03-23T19:03:29;15.50;99.90
22984;DHT22;11658;48.908;9.140;2023-03-23T19:05:57;15.50;99.90
22984;DHT22;11658;48.908;9.140;2023-03-23T19:08:23;15.50;99.90
22984;DHT22;11658;48.908;9.140;2023-03-23T19:10:49;15.40;99.90
22984;DHT22;11658;48.908;9.140;2023-03-23T19:13:20;15.40;99.90
22984;DHT22;11658;48.908;9.140;2023-03-23T19:15:45;15.40;99.90
22984;DHT22;11658;48.908;9.140;2023-03-23T19:18:11;15.40;99.90
22984;DHT22;11658;48.908;9.140;2023-03-23T19:20:36;15.40;99.90
22984;DHT22;11658;48.908;9.140;2023-03-23T19:23:02;15.40;99.90
22984;DHT22;11658;48.908;9.140;2023-03-23T19:25:28;15.30;99.90
22984;DHT22;11658;48.908;9.140;2023-03-23T19:27:53;15.30;99.90
22984;DHT22;11658;48.908;9.140;2023-03-23T19:30:19;15.30;99.90
22984;DHT22;11658;48.908;9.140;2023-03-23T19:32:45;15.30;99.90
22984;DHT22;11658;48.908;9.140;2023-03-23T19:35:11;15.40;99.90
22984;DHT22;11658;48.908;9.140;2023-03-23T19:37:37;15.40;99.90
22984;DHT22;11658;48.908;9.140;2023-03-23T19:40:03;15.40;99.90
22984;DHT22;11658;48.908;9.140;2023-03-23T19:42:31;15.30;99.90
22984;DHT22;11658;48.908;9.140;2023-03-23T19:44:56;15.30;99.90
22984;DHT22;11658;48.908;9.140;2023-03-23T19:47:22;15.30;99.90
22984;DHT22;11658;48.908;9.140;2023-03-23T19:49:47;15.30;99.90
22984;DHT22;11658;48.908;9.140;2023-03-23T19:52:13;15.40;99.90
22984;DHT22;11658;48.908;9.140;2023-03-23T19:54:39;15.30;99.90
22984;DHT22;11658;48.908;9.140;2023-03-23T19:57:05;15.30;99.90
22984;DHT22;11658;48.908;9.140;2023-03-23T19:59:31;15.30;99.90
22984;DHT22;11658;48.908;9.140;2023-03-23T20:01:56;15.20;99.90
22984;DHT22;11658;48.908;9.140;2023-03-23T20:04:22;15.10;99.90
22984;DHT22;11658;48.908;9.140;2023-03-23T20:06:49;15.10;99.90
22984;DHT22;11658;48.908;9.140;2023-03-23T20:09:14;15.10;99.90
22984;DHT22;11658;48.908;9.140;2023-03-23T20:11:41;15.10;99.90
22984;DHT22;11658;48.908;9.140;2023-03-23T20:14:07;15.10;99.90
22984;DHT22;11658;48.908;9.140;2023-03-23T20:16:33;15.00;99.90
22984;DHT22;11658;48.908;9.140;2023-03-23T20:18:59;15.00;99.90
22984;DHT22;11658;48.908;9.140;2023-03-23T20:21:24;15.00;99.90
22984;DHT22;11658;48.908;9.140;2023-03-23T20:23:53;15.00;99.90
22984;DHT22;11658;48.908;9.140;2023-03-23T20:26:32;14.90;99.90
22984;DHT22;11658;48.908;9.140;2023-03-23T20:28:59;14.90;99.90
22984;DHT22;11658;48.908;9.140;2023-03-23T20:31:33;14.90;99.90
22984;DHT22;11658;48.908;9.140;2023-03-23T20:34:02;14.90;99.90
22984;DHT22;11658;48.908;9.140;2023-03-23T20:36:37;15.00;99.90
22984;DHT22;11658;48.908;9.140;2023-03-23T20:39:10;15.00;99.90
22984;DHT22;11658;48.908;9.140;2023-03-23T20:41:37;14.90;99.90
22984;DHT22;11658;48.908;9.140;2023-03-23T20:44:05;14.90;99.90
22984;DHT22;11658;48.908;9.140;2023-03-23T20:46:32;14.90;99.90
22984;DHT22;11658;48.908;9.140;2023-03-23T20:48:57;14.90;99.90
22984;DHT22;11658;48.908;9.140;2023-03-23T20:51:23;14.90;99.90
22984;DHT22;11658;48.908;9.140;2023-03-23T20:53:50;14.80;99.90
22984;DHT22;11658;48.908;9.140;2023-03-23T20:56:15;14.80;99.90
22984;DHT22;11658;48.908;9.140;2023-03-23T20:58:41;14.80;99.90
22984;DHT22;11658;48.908;9.140;2023-03-23T21:01:07;14.90;99.90
22984;DHT22;11658;48.908;9.140;2023-03-23T21:03:35;14.80;99.90
22984;DHT22;11658;48.908;9.140;2023-03-23T21:06:03;14.80;99.90
22984;DHT22;11658;48.908;9.140;2023-03-23T21:08:35;14.70;99.90
22984;DHT22;11658;48.908;9.140;2023-03-23T21:11:03;14.70;99.90
22984;DHT22;11658;48.908;9.140;2023-03-23T21:13:32;14.70;99.90
22984;DHT22;11658;48.908;9.140;2023-03-23T21:16:00;14.70;99.90
22984;DHT22;11658;48.908;9.140;2023-03-23T21:18:26;14.70;99.90
22984;DHT22;11658;48.908;9.140;2023-03-23T21:20:52;14.70;99.90
22984;DHT22;11658;48.908;9.140;2023-03-23T21:23:18;14.60;99.90
22984;DHT22;11658;48.908;9.140;2023-03-23T21:25:44;14.60;99.90